Time;durP1;ratioP1;P1;durP2;ratioP2;P2;SDS_P1;SDS_P2;PMS_P1;PMS_P2;Temp;Humidity;BMP_temperature;BMP_pressure;BME280_temperature;BME280_humidity;BME280_pressure;Samples;Min_cycle;Max_cycle;Signal;HPM_P1;HPM_P2
2022/12/20 00:00:26;;;;;;;2.50;1.05;;;0.30;99.90;;;;;;5096213;28;20177;-68
2022/12/20 00:02:52;;;;;;;0.20;0.20;;;0.30;99.90;;;;;;5096364;28;20231;-68
2022/12/20 00:05:18;;;;;;;0.30;0.30;;;0.30;99.90;;;;;;5096299;28;20623;-68
2022/12/20 00:07:44;;;;;;;0.30;0.30;;;0.30;99.90;;;;;;5094928;28;20197;-69
2022/12/20 00:10:09;;;;;;;0.55;0.55;;;0.30;99.90;;;;;;5096309;28;20244;-68
2022/12/20 00:12:35;;;;;;;1.05;0.65;;;0.30;99.90;;;;;;5094871;28;20231;-69
2022/12/20 00:15:01;;;;;;;0.30;0.30;;;0.30;99.90;;;;;;5096007;28;20180;-68
2022/12/20 00:17:27;;;;;;;0.90;0.90;;;0.30;99.90;;;;;;5096157;28;20153;-67
2022/12/20 00:19:52;;;;;;;0.20;0.20;;;0.40;99.90;;;;;;5096059;28;20157;-68
2022/12/20 00:22:18;;;;;;;0.25;0.25;;;0.40;99.90;;;;;;5096043;28;20164;-68
2022/12/20 00:24:44;;;;;;;0.30;0.30;;;0.40;99.90;;;;;;5094731;28;20203;-68
2022/12/20 00:27:09;;;;;;;0.20;0.20;;;0.40;99.90;;;;;;5095884;28;20186;-68
2022/12/20 00:29:35;;;;;;;0.20;0.20;;;0.40;99.90;;;;;;5095853;28;20183;-68
2022/12/20 00:32:01;;;;;;;0.20;0.20;;;0.40;99.90;;;;;;5095741;28;20156;-67
2022/12/20 00:34:26;;;;;;;0.20;0.20;;;0.40;99.90;;;;;;5095237;28;20183;-68
2022/12/20 00:36:52;;;;;;;0.20;0.20;;;0.40;99.90;;;;;;5095797;28;20610;-68
2022/12/20 00:39:18;;;;;;;1.23;0.45;;;0.40;99.90;;;;;;5095252;28;20167;-67
2022/12/20 00:41:43;;;;;;;0.30;0.30;;;0.40;99.90;;;;;;5095745;28;20236;-68
2022/12/20 00:44:09;;;;;;;0.38;0.38;;;0.40;99.90;;;;;;5095750;28;20518;-67
2022/12/20 00:46:35;;;;;;;0.20;0.20;;;0.40;99.90;;;;;;5095640;28;20520;-67
2022/12/20 00:49:01;;;;;;;0.57;0.47;;;0.40;99.90;;;;;;5094942;28;20196;-67
2022/12/20 00:51:28;;;;;;;0.20;0.20;;;0.40;99.90;;;;;;5094116;28;20169;-67
2022/12/20 00:53:55;;;;;;;0.22;0.22;;;0.40;99.90;;;;;;5095358;28;20148;-67
2022/12/20 00:56:21;;;;;;;0.28;0.28;;;0.40;99.90;;;;;;5095140;28;20171;-67
2022/12/20 00:58:46;;;;;;;0.20;0.20;;;0.40;99.90;;;;;;5095404;28;20247;-67
2022/12/20 01:01:23;;;;;;;0.30;0.30;;;0.40;99.90;;;;;;5095194;28;20161;-67
2022/12/20 01:03:50;;;;;;;0.22;0.22;;;0.40;99.90;;;;;;5095312;28;20157;-67
2022/12/20 01:06:17;;;;;;;0.43;0.43;;;0.40;99.90;;;;;;5095207;28;20212;-68
2022/12/20 01:08:43;;;;;;;0.50;0.50;;;0.50;99.90;;;;;;5095047;28;20211;-67
2022/12/20 01:11:18;;;;;;;0.40;0.40;;;0.50;99.90;;;;;;5097044;28;20206;-67
2022/12/20 01:13:47;;;;;;;0.40;0.40;;;0.50;99.90;;;;;;5115449;28;20162;-67
2022/12/20 01:16:17;;;;;;;0.40;0.40;;;0.50;99.90;;;;;;5115145;28;20163;-67
2022/12/20 01:18:45;;;;;;;0.68;0.68;;;0.50;99.90;;;;;;5115125;28;20610;-67
2022/12/20 01:21:13;;;;;;;0.63;0.63;;;0.40;99.90;;;;;;5114572;28;20160;-67
2022/12/20 01:23:39;;;;;;;1.20;1.10;;;0.40;99.90;;;;;;5115035;28;20156;-67
2022/12/20 01:26:08;;;;;;;0.20;0.20;;;0.40;99.90;;;;;;5115267;28;20591;-67
2022/12/20 01:28:35;;;;;;;0.55;0.55;;;0.40;99.90;;;;;;5115176;28;20175;-68
2022/12/20 01:31:01;;;;;;;0.30;0.30;;;0.40;99.90;;;;;;5115096;28;20144;-67
2022/12/20 01:33:27;;;;;;;0.93;0.93;;;0.40;99.90;;;;;;5114968;28;20245;-67
2022/12/20 01:36:04;;;;;;;0.30;0.30;;;0.40;99.90;;;;;;5115029;28;20252;-67
2022/12/20 01:38:31;;;;;;;0.68;0.65;;;0.40;99.90;;;;;;5114623;28;20167;-68
2022/12/20 01:40:57;;;;;;;0.40;0.40;;;0.40;99.90;;;;;;5114737;28;20242;-67
2022/12/20 01:43:24;;;;;;;0.30;0.30;;;0.40;99.90;;;;;;5114781;28;20156;-67
2022/12/20 01:45:53;;;;;;;2.83;0.98;;;0.40;99.90;;;;;;5114535;28;20229;-67
2022/12/20 01:48:23;;;;;;;0.30;0.30;;;0.40;99.90;;;;;;5114661;28;20236;-67
2022/12/20 01:50:50;;;;;;;0.50;0.50;;;0.40;99.90;;;;;;5114595;28;20149;-68
2022/12/20 01:53:20;;;;;;;0.20;0.20;;;0.40;99.90;;;;;;5114286;28;20176;-67
2022/12/20 01:55:46;;;;;;;0.20;0.20;;;0.50;99.90;;;;;;5114544;28;20186;-67
2022/12/20 01:58:15;;;;;;;0.20;0.20;;;0.50;99.90;;;;;;5114553;28;20187;-67
2022/12/20 02:00:41;;;;;;;0.70;0.70;;;0.50;99.90;;;;;;5114827;28;20163;-68
2022/12/20 02:03:10;;;;;;;0.30;0.30;;;0.50;99.90;;;;;;5266692;22;20245;-69
2022/12/20 02:05:43;;;;;;;0.20;0.20;;;0.50;99.90;;;;;;5051479;28;20519;-70
2022/12/20 02:08:10;;;;;;;0.28;0.28;;;0.50;99.90;;;;;;5052854;28;20655;-70
2022/12/20 02:11:01;;;;;;;0.30;0.30;;;0.50;99.90;;;;;;5053059;28;20196;-70
2022/12/20 02:13:37;;;;;;;0.20;0.20;;;0.50;99.90;;;;;;5052389;28;20711;-70
2022/12/20 02:16:04;;;;;;;0.30;0.30;;;0.50;99.90;;;;;;5052838;28;20161;-70
2022/12/20 02:19:01;;;;;;;0.30;0.30;;;0.50;99.90;;;;;;5049997;28;20178;-71
2022/12/20 02:21:31;;;;;;;0.30;0.30;;;0.50;99.90;;;;;;5029142;28;20189;-70
2022/12/20 02:24:15;;;;;;;0.20;0.20;;;0.60;99.90;;;;;;5052841;28;20189;-69
2022/12/20 02:27:32;;;;;;;0.40;0.40;;;0.60;99.90;;;;;;5052030;28;20502;-72
2022/12/20 02:30:12;;;;;;;0.20;0.20;;;0.60;99.90;;;;;;5047949;28;20694;-70
2022/12/20 02:32:46;;;;;;;0.20;0.20;;;0.60;99.90;;;;;;5051544;28;20188;-69
2022/12/20 02:35:16;;;;;;;0.30;0.30;;;0.60;99.90;;;;;;5053287;28;20556;-68
2022/12/20 02:37:51;;;;;;;0.38;0.38;;;0.60;99.90;;;;;;5052244;28;20173;-67
2022/12/20 02:40:22;;;;;;;0.20;0.20;;;0.60;99.90;;;;;;5053018;28;20150;-69
2022/12/20 02:42:53;;;;;;;1.08;0.85;;;0.60;99.90;;;;;;5053162;28;20165;-68
2022/12/20 02:45:25;;;;;;;0.20;0.20;;;0.60;99.90;;;;;;5051785;28;20550;-70
2022/12/20 02:47:56;;;;;;;0.20;0.20;;;0.50;99.90;;;;;;5050715;28;20201;-70
2022/12/20 02:50:35;;;;;;;0.22;0.22;;;0.50;99.90;;;;;;5067274;28;20638;-70
2022/12/20 02:53:02;;;;;;;0.30;0.30;;;0.50;99.90;;;;;;5072780;28;20215;-71
2022/12/20 02:56:08;;;;;;;0.20;0.20;;;0.50;99.90;;;;;;5072616;28;20232;-70
2022/12/20 02:58:41;;;;;;;0.20;0.20;;;0.50;99.90;;;;;;5071217;28;20180;-70
2022/12/20 03:01:15;;;;;;;0.43;0.43;;;0.50;99.90;;;;;;5061959;28;20177;-70
2022/12/20 03:03:41;;;;;;;0.38;0.38;;;0.50;99.90;;;;;;5052355;28;20218;-72
2022/12/20 03:06:07;;;;;;;0.30;0.30;;;0.50;99.90;;;;;;5052807;28;20162;-71
2022/12/20 03:08:33;;;;;;;0.88;0.88;;;0.60;99.90;;;;;;5051483;28;20239;-71
2022/12/20 03:10:58;;;;;;;0.30;0.30;;;0.50;99.90;;;;;;5050684;28;20173;-71
2022/12/20 03:13:25;;;;;;;0.50;0.50;;;0.60;99.90;;;;;;5057157;28;20158;-70
2022/12/20 03:15:51;;;;;;;0.82;0.73;;;0.50;99.90;;;;;;5054856;28;20154;-70
2022/12/20 03:18:16;;;;;;;0.88;0.75;;;0.50;99.90;;;;;;5053872;28;20655;-71
2022/12/20 03:20:43;;;;;;;0.30;0.30;;;0.50;99.90;;;;;;5057213;28;20158;-71
2022/12/20 03:23:09;;;;;;;0.30;0.30;;;0.50;99.90;;;;;;5056425;28;20244;-70
2022/12/20 03:25:34;;;;;;;0.30;0.30;;;0.50;99.90;;;;;;5056056;28;20161;-70
2022/12/20 03:28:00;;;;;;;0.30;0.30;;;0.50;99.90;;;;;;5055739;28;20255;-71
2022/12/20 03:30:26;;;;;;;0.20;0.20;;;0.50;99.90;;;;;;5056872;28;20521;-71
2022/12/20 03:32:52;;;;;;;0.55;0.55;;;0.50;99.90;;;;;;5055838;28;20158;-68
2022/12/20 03:35:18;;;;;;;0.30;0.30;;;0.50;99.90;;;;;;5042190;28;20607;-68
2022/12/20 03:37:43;;;;;;;0.38;0.38;;;0.50;99.90;;;;;;5050892;28;20183;-68
2022/12/20 03:40:10;;;;;;;0.20;0.20;;;0.50;99.90;;;;;;5034991;28;20617;-68
2022/12/20 03:42:36;;;;;;;0.50;0.50;;;0.50;99.90;;;;;;5036520;28;20205;-68
2022/12/20 03:45:03;;;;;;;0.30;0.30;;;0.50;99.90;;;;;;5041003;28;20155;-68
2022/12/20 03:47:28;;;;;;;0.40;0.40;;;0.50;99.90;;;;;;5074739;28;20658;-68
2022/12/20 03:49:54;;;;;;;0.65;0.65;;;0.50;99.90;;;;;;5074434;28;20211;-68
2022/12/20 03:52:20;;;;;;;0.30;0.30;;;0.50;99.90;;;;;;5076159;28;20157;-70
2022/12/20 03:54:45;;;;;;;0.30;0.30;;;0.50;99.90;;;;;;5074926;28;20169;-69
2022/12/20 03:57:11;;;;;;;0.30;0.30;;;0.50;99.90;;;;;;5058493;28;20702;-69
2022/12/20 03:59:38;;;;;;;0.10;0.10;;;0.50;99.90;;;;;;5055514;28;20169;-71
2022/12/20 04:02:03;;;;;;;6.32;2.38;;;0.50;99.90;;;;;;5052303;28;20174;-70
2022/12/20 04:04:30;;;;;;;0.50;0.50;;;0.50;99.90;;;;;;5054421;28;20343;-70
2022/12/20 04:06:56;;;;;;;0.70;0.70;;;0.50;99.90;;;;;;5055651;28;20166;-70
2022/12/20 04:09:21;;;;;;;0.30;0.30;;;0.50;99.90;;;;;;5054912;28;20165;-70
2022/12/20 04:11:47;;;;;;;0.55;0.55;;;0.50;99.90;;;;;;5054019;28;20154;-70
2022/12/20 04:14:13;;;;;;;0.38;0.38;;;0.60;99.90;;;;;;5053445;28;20177;-70
2022/12/20 04:16:39;;;;;;;0.20;0.20;;;0.50;99.90;;;;;;5054260;28;20168;-70
2022/12/20 04:19:04;;;;;;;0.30;0.30;;;0.50;99.90;;;;;;5055118;28;20227;-70
2022/12/20 04:21:32;;;;;;;0.20;0.20;;;0.60;99.90;;;;;;5053802;28;20186;-70
2022/12/20 04:23:59;;;;;;;0.35;0.35;;;0.60;99.90;;;;;;5054032;28;20603;-70
2022/12/20 04:26:25;;;;;;;0.30;0.30;;;0.60;99.90;;;;;;5054403;28;20170;-70
2022/12/20 04:28:51;;;;;;;0.20;0.20;;;0.60;99.90;;;;;;5053888;28;20185;-70
2022/12/20 04:31:17;;;;;;;0.20;0.20;;;0.60;99.90;;;;;;5053549;28;20192;-70
2022/12/20 04:33:43;;;;;;;0.20;0.20;;;0.60;99.90;;;;;;5053079;28;20178;-71
2022/12/20 04:36:09;;;;;;;0.30;0.30;;;0.60;99.90;;;;;;5055216;28;20158;-70
2022/12/20 04:38:35;;;;;;;0.55;0.45;;;0.60;99.90;;;;;;5055025;28;20216;-71
2022/12/20 04:41:01;;;;;;;0.55;0.55;;;0.60;99.90;;;;;;5054341;28;20210;-70
2022/12/20 04:43:26;;;;;;;0.20;0.20;;;0.50;99.90;;;;;;5055242;28;20185;-68
2022/12/20 04:45:57;;;;;;;0.30;0.30;;;0.60;99.90;;;;;;5053827;28;20219;-69
2022/12/20 04:48:27;;;;;;;0.20;0.20;;;0.60;99.90;;;;;;5054896;28;20201;-66
2022/12/20 04:50:54;;;;;;;1.15;1.05;;;0.60;99.90;;;;;;5053595;28;20168;-69
2022/12/20 04:56:05;;;;;;;0.30;0.30;;;0.60;99.90;;;;;;5054929;28;20155;-68
2022/12/20 04:58:31;;;;;;;0.20;0.20;;;0.60;99.90;;;;;;5053646;28;20518;-69
2022/12/20 05:00:57;;;;;;;0.43;0.43;;;0.60;99.90;;;;;;5054667;28;20185;-69
2022/12/20 05:03:24;;;;;;;0.30;0.30;;;0.60;99.90;;;;;;5054518;28;20221;-69
2022/12/20 05:05:49;;;;;;;0.40;0.40;;;0.60;99.90;;;;;;5054445;28;20161;-69
2022/12/20 05:08:15;;;;;;;0.20;0.20;;;0.60;99.90;;;;;;5054281;28;20679;-69
2022/12/20 05:10:41;;;;;;;0.30;0.30;;;0.60;99.90;;;;;;5054386;28;20664;-68
2022/12/20 05:13:07;;;;;;;0.35;0.35;;;0.60;99.90;;;;;;5054288;28;20238;-69
2022/12/20 05:15:33;;;;;;;0.32;0.32;;;0.60;99.90;;;;;;5054517;28;20162;-68
2022/12/20 05:17:59;;;;;;;0.30;0.30;;;0.60;99.90;;;;;;5054030;28;20211;-69
2022/12/20 05:20:25;;;;;;;0.20;0.20;;;0.60;99.90;;;;;;5053464;28;20182;-69
2022/12/20 05:28:23;;;;;;;0.30;0.30;;;0.60;99.90;;;;;;5054109;28;20251;-69
2022/12/20 05:30:48;;;;;;;0.40;0.40;;;0.60;99.90;;;;;;5053845;28;20591;-68
2022/12/20 05:33:16;;;;;;;0.20;0.20;;;0.60;99.90;;;;;;5054142;28;20174;-68
2022/12/20 05:35:41;;;;;;;0.20;0.20;;;0.60;99.90;;;;;;5053183;28;20156;-68
2022/12/20 05:38:07;;;;;;;0.20;0.20;;;0.60;99.90;;;;;;5061002;28;20191;-68
2022/12/20 05:40:33;;;;;;;0.30;0.30;;;0.50;99.90;;;;;;5073915;28;20531;-68
2022/12/20 05:42:59;;;;;;;0.30;0.30;;;0.60;99.90;;;;;;5072423;28;20183;-69
2022/12/20 05:45:25;;;;;;;0.20;0.20;;;0.60;99.90;;;;;;5073712;28;20156;-69
2022/12/20 05:47:51;;;;;;;0.30;0.30;;;0.60;99.90;;;;;;5072039;28;20189;-69
2022/12/20 05:50:17;;;;;;;0.40;0.40;;;0.60;99.90;;;;;;5052739;28;20744;-69
2022/12/20 05:52:42;;;;;;;0.40;0.40;;;0.60;99.90;;;;;;5052638;28;20877;-69
2022/12/20 05:55:09;;;;;;;0.20;0.20;;;0.60;99.90;;;;;;5053898;28;20178;-69
2022/12/20 05:57:35;;;;;;;0.30;0.30;;;0.60;99.90;;;;;;5052596;28;20170;-69
2022/12/20 06:00:03;;;;;;;0.22;0.22;;;0.60;99.90;;;;;;5053868;28;20158;-69
2022/12/20 06:02:28;;;;;;;0.20;0.20;;;0.60;99.90;;;;;;5053350;28;20534;-69
2022/12/20 06:04:55;;;;;;;0.20;0.20;;;0.60;99.90;;;;;;5053767;28;20174;-69
2022/12/20 06:07:21;;;;;;;0.20;0.20;;;0.60;99.90;;;;;;5053528;28;20651;-68
2022/12/20 06:09:46;;;;;;;0.20;0.20;;;0.60;99.90;;;;;;5053819;28;20208;-71
2022/12/20 06:12:12;;;;;;;0.30;0.30;;;0.60;99.90;;;;;;5053685;28;20584;-71
2022/12/20 06:14:38;;;;;;;0.30;0.30;;;0.60;99.90;;;;;;5053554;28;20198;-71
2022/12/20 06:17:04;;;;;;;0.40;0.40;;;0.60;99.90;;;;;;5052319;28;20173;-70
2022/12/20 06:19:30;;;;;;;0.22;0.22;;;0.60;99.90;;;;;;5053540;28;20173;-71
2022/12/20 06:21:56;;;;;;;0.40;0.40;;;0.60;99.90;;;;;;5051753;28;20177;-69
2022/12/20 06:24:24;;;;;;;0.20;0.20;;;0.60;99.90;;;;;;5053574;28;20185;-70
2022/12/20 06:26:50;;;;;;;0.30;0.30;;;0.60;99.90;;;;;;5053169;28;20226;-70
2022/12/20 06:29:18;;;;;;;0.30;0.30;;;0.60;99.90;;;;;;5053199;28;20552;-71
2022/12/20 06:31:44;;;;;;;0.20;0.20;;;0.60;99.90;;;;;;5053362;28;20264;-70
2022/12/20 06:34:10;;;;;;;0.30;0.30;;;0.60;99.90;;;;;;5059180;28;20241;-70
2022/12/20 06:36:35;;;;;;;0.90;0.85;;;0.60;99.90;;;;;;5072019;28;20165;-71
2022/12/20 06:39:02;;;;;;;0.30;0.30;;;0.60;99.90;;;;;;5058025;28;20202;-72
2022/12/20 06:41:27;;;;;;;0.30;0.30;;;0.60;99.90;;;;;;5051999;28;20659;-71
2022/12/20 06:43:53;;;;;;;0.43;0.43;;;0.60;99.90;;;;;;5053288;28;20158;-70
2022/12/20 06:46:19;;;;;;;0.28;0.28;;;0.60;99.90;;;;;;5055527;28;20182;-71
2022/12/20 06:48:45;;;;;;;0.85;0.85;;;0.60;99.90;;;;;;5057267;28;20185;-70
2022/12/20 06:51:10;;;;;;;4.28;0.90;;;0.70;99.90;;;;;;5056003;28;20161;-71
2022/12/20 06:53:36;;;;;;;0.20;0.20;;;0.70;99.90;;;;;;5055802;28;20636;-71
2022/12/20 06:56:02;;;;;;;0.30;0.30;;;0.70;99.90;;;;;;5056415;28;20228;-70
2022/12/20 06:58:28;;;;;;;0.65;0.65;;;0.70;99.90;;;;;;5056392;28;20165;-71
2022/12/20 07:00:54;;;;;;;0.20;0.20;;;0.70;99.90;;;;;;5057056;28;20204;-71
2022/12/20 07:03:19;;;;;;;0.20;0.20;;;0.70;99.90;;;;;;5055544;28;20312;-70
2022/12/20 07:05:52;;;;;;;0.20;0.20;;;0.80;99.90;;;;;;5056960;28;20166;-72
2022/12/20 07:08:18;;;;;;;0.20;0.20;;;0.80;99.90;;;;;;5056835;28;20664;-71
2022/12/20 07:10:44;;;;;;;0.20;0.20;;;0.80;99.90;;;;;;5057001;28;20146;-72
2022/12/20 07:13:09;;;;;;;0.30;0.30;;;0.90;99.90;;;;;;5056834;28;20254;-72
2022/12/20 07:15:35;;;;;;;0.30;0.30;;;0.90;99.90;;;;;;5056650;28;20161;-71
2022/12/20 07:18:02;;;;;;;0.30;0.30;;;1.00;99.90;;;;;;5057042;28;20177;-71
2022/12/20 07:20:28;;;;;;;0.35;0.35;;;1.00;99.90;;;;;;5056783;28;20154;-71
2022/12/20 07:22:54;;;;;;;0.20;0.20;;;1.00;99.90;;;;;;5055407;28;20567;-71
2022/12/20 07:25:20;;;;;;;0.30;0.30;;;1.20;99.90;;;;;;5055237;28;20162;-71
2022/12/20 07:27:48;;;;;;;0.20;0.20;;;1.10;99.90;;;;;;5056594;28;20648;-71
2022/12/20 07:30:15;;;;;;;0.20;0.20;;;1.10;99.90;;;;;;5060803;28;20210;-71
2022/12/20 07:32:40;;;;;;;0.20;0.20;;;1.20;99.90;;;;;;5076741;28;20169;-71
2022/12/20 07:35:07;;;;;;;0.20;0.20;;;1.20;99.90;;;;;;5075044;28;20161;-71
2022/12/20 07:37:32;;;;;;;0.30;0.30;;;1.20;99.90;;;;;;5065089;28;20540;-71
2022/12/20 07:39:58;;;;;;;0.20;0.20;;;1.20;99.90;;;;;;5054468;28;20162;-71
2022/12/20 07:42:24;;;;;;;0.20;0.20;;;1.20;99.90;;;;;;5052349;28;20185;-70
2022/12/20 07:44:49;;;;;;;0.25;0.25;;;1.20;99.90;;;;;;5056081;28;20189;-71
2022/12/20 07:47:15;;;;;;;0.25;0.25;;;1.20;99.90;;;;;;5056154;28;20608;-71
2022/12/20 07:49:41;;;;;;;0.30;0.30;;;1.20;99.90;;;;;;5055120;28;20158;-72
2022/12/20 07:52:08;;;;;;;0.20;0.20;;;1.20;99.90;;;;;;5056248;28;20636;-71
2022/12/20 07:54:39;;;;;;;0.30;0.30;;;1.30;99.90;;;;;;5054981;28;20162;-71
2022/12/20 07:57:12;;;;;;;0.40;0.40;;;1.30;99.90;;;;;;5054280;28;20604;-71
2022/12/20 07:59:41;;;;;;;0.20;0.20;;;1.30;99.90;;;;;;5056088;28;20150;-71
2022/12/20 08:02:16;;;;;;;0.22;0.22;;;1.40;99.90;;;;;;5056224;28;20176;-71
2022/12/20 08:04:42;;;;;;;0.15;0.15;;;1.40;99.90;;;;;;5055828;28;20589;-68
2022/12/20 08:07:09;;;;;;;0.30;0.30;;;1.40;99.90;;;;;;5055774;28;20162;-70
2022/12/20 08:09:39;;;;;;;0.20;0.20;;;1.40;99.90;;;;;;5055987;28;20154;-68
2022/12/20 08:12:08;;;;;;;0.20;0.20;;;1.40;99.90;;;;;;5055934;28;20166;-69
2022/12/20 08:14:34;;;;;;;0.25;0.25;;;1.40;99.90;;;;;;5055894;28;20161;-68
2022/12/20 08:16:59;;;;;;;0.30;0.30;;;1.40;99.90;;;;;;5054183;28;20177;-69
2022/12/20 08:19:25;;;;;;;0.30;0.30;;;1.30;99.90;;;;;;5055460;28;20177;-68
2022/12/20 08:21:51;;;;;;;0.30;0.30;;;1.30;99.90;;;;;;5055450;28;20162;-68
2022/12/20 08:24:16;;;;;;;0.20;0.20;;;1.30;99.90;;;;;;5055346;28;20647;-69
2022/12/20 08:26:42;;;;;;;0.30;0.30;;;1.40;99.90;;;;;;5060394;28;20234;-68
2022/12/20 08:29:08;;;;;;;0.20;0.20;;;1.50;99.90;;;;;;5075488;28;20181;-68
2022/12/20 08:31:38;;;;;;;0.30;0.30;;;1.70;99.90;;;;;;5075284;28;20162;-69
2022/12/20 08:34:05;;;;;;;0.60;0.60;;;1.70;99.90;;;;;;5075414;28;20188;-70
2022/12/20 08:36:31;;;;;;;0.20;0.20;;;1.70;99.90;;;;;;5071420;28;20210;-70
2022/12/20 08:38:56;;;;;;;0.20;0.20;;;1.80;99.90;;;;;;5050553;28;20267;-70
2022/12/20 08:41:22;;;;;;;0.30;0.30;;;1.80;99.90;;;;;;5034716;28;20173;-70
2022/12/20 08:43:48;;;;;;;0.20;0.20;;;1.80;99.90;;;;;;5037814;28;20664;-70
2022/12/20 08:46:13;;;;;;;0.30;0.30;;;1.90;99.90;;;;;;5053842;28;20157;-70
2022/12/20 08:48:39;;;;;;;0.20;0.20;;;2.00;99.90;;;;;;5054952;28;20182;-70
2022/12/20 08:51:07;;;;;;;0.30;0.30;;;2.00;99.90;;;;;;5055198;28;20162;-70
2022/12/20 08:53:34;;;;;;;0.20;0.20;;;1.90;99.90;;;;;;5055061;28;20150;-70
2022/12/20 08:56:07;;;;;;;0.25;0.25;;;1.90;99.90;;;;;;5055010;28;20150;-71
2022/12/20 08:58:33;;;;;;;0.90;0.60;;;1.80;99.90;;;;;;5054780;28;20193;-71
2022/12/20 09:01:00;;;;;;;0.20;0.20;;;1.80;99.90;;;;;;5054915;28;20146;-71
2022/12/20 09:03:29;;;;;;;0.20;0.20;;;1.80;99.90;;;;;;5054795;28;20687;-71
2022/12/20 09:05:55;;;;;;;0.20;0.20;;;1.80;99.90;;;;;;5054906;28;20241;-71
2022/12/20 09:08:21;;;;;;;0.30;0.30;;;1.80;99.90;;;;;;5052790;28;20200;-71
2022/12/20 09:10:47;;;;;;;0.22;0.22;;;1.80;99.90;;;;;;5054825;28;20187;-70
2022/12/20 09:13:13;;;;;;;0.28;0.28;;;1.90;99.90;;;;;;5054830;28;20197;-71
2022/12/20 09:15:38;;;;;;;0.30;0.30;;;1.90;99.90;;;;;;5054471;28;20237;-71
2022/12/20 09:18:04;;;;;;;0.60;0.60;;;2.00;99.90;;;;;;5054587;28;20243;-71
2022/12/20 09:20:31;;;;;;;0.30;0.30;;;2.00;99.90;;;;;;5054568;28;20150;-71
2022/12/20 09:22:58;;;;;;;0.20;0.20;;;2.00;99.90;;;;;;5058935;28;20268;-71
2022/12/20 09:25:24;;;;;;;0.20;0.20;;;1.90;99.90;;;;;;5074435;28;20251;-71
2022/12/20 09:27:50;;;;;;;0.30;0.30;;;1.90;99.90;;;;;;5072889;28;20652;-71
2022/12/20 09:30:16;;;;;;;0.28;0.28;;;1.90;99.90;;;;;;5073086;28;20164;-71
2022/12/20 09:32:42;;;;;;;0.20;0.20;;;1.80;99.90;;;;;;5074312;28;20215;-71
2022/12/20 09:35:08;;;;;;;0.22;0.22;;;1.80;99.90;;;;;;5074359;28;20153;-70
2022/12/20 09:37:34;;;;;;;0.20;0.20;;;1.90;99.90;;;;;;5070493;28;20191;-71
2022/12/20 09:39:59;;;;;;;0.28;0.28;;;2.10;99.90;;;;;;5209788;22;20287;-70
2022/12/20 09:42:27;;;;;;;0.20;0.20;;;2.10;99.90;;;;;;5086887;22;20705;-70
2022/12/20 09:45:02;;;;;;;0.30;0.30;;;2.20;99.90;;;;;;5110810;28;20225;-70
2022/12/20 09:47:30;;;;;;;0.20;0.20;;;2.30;99.90;;;;;;5115028;28;20179;-70
2022/12/20 09:49:56;;;;;;;0.20;0.20;;;2.30;99.90;;;;;;5096658;28;20160;-71
2022/12/20 09:52:26;;;;;;;0.10;0.10;;;2.30;99.90;;;;;;5114855;28;20235;-71
2022/12/20 09:54:51;;;;;;;0.20;0.20;;;2.40;99.90;;;;;;5096832;28;20155;-71
2022/12/20 09:57:46;;;;;;;0.20;0.20;;;2.40;99.90;;;;;;5114656;28;20700;-70
2022/12/20 10:00:14;;;;;;;0.30;0.30;;;2.40;99.90;;;;;;5096420;28;20155;-70
2022/12/20 10:02:40;;;;;;;0.10;0.10;;;2.40;99.90;;;;;;5114737;28;20155;-70
2022/12/20 10:05:18;;;;;;;0.20;0.20;;;2.40;99.90;;;;;;5114621;28;20155;-71
2022/12/20 10:08:00;;;;;;;0.20;0.20;;;2.40;99.90;;;;;;5114387;28;20183;-71
2022/12/20 10:10:34;;;;;;;0.30;0.30;;;2.40;99.90;;;;;;5114385;28;20594;-71
2022/12/20 10:13:05;;;;;;;0.20;0.20;;;2.40;99.90;;;;;;5114534;28;20151;-71
2022/12/20 10:15:39;;;;;;;0.30;0.30;;;2.40;99.90;;;;;;5114387;28;20654;-71
2022/12/20 10:18:19;;;;;;;0.20;0.20;;;2.40;99.90;;;;;;5114415;28;20183;-69
2022/12/20 10:21:29;;;;;;;0.30;0.30;;;2.40;99.90;;;;;;5095207;28;20274;-70
2022/12/20 10:24:04;;;;;;;0.15;0.15;;;2.30;99.90;;;;;;5051260;28;20185;-70
2022/12/20 10:26:31;;;;;;;0.20;0.20;;;2.40;99.90;;;;;;5051151;28;20334;-70
2022/12/20 10:28:57;;;;;;;0.30;0.30;;;2.50;99.90;;;;;;5034424;28;20219;-71
2022/12/20 10:31:24;;;;;;;0.20;0.20;;;2.60;99.90;;;;;;5051366;28;20264;-71
2022/12/20 10:33:50;;;;;;;0.20;0.20;;;2.50;99.90;;;;;;5051689;28;20680;-71
2022/12/20 10:36:37;;;;;;;0.20;0.20;;;2.70;99.90;;;;;;5051613;28;20161;-71
2022/12/20 10:39:05;;;;;;;0.20;0.20;;;2.70;99.90;;;;;;5045884;28;20327;-71
2022/12/20 10:41:43;;;;;;;0.20;0.20;;;2.70;99.90;;;;;;5051136;28;20182;-70
2022/12/20 10:44:17;;;;;;;0.20;0.20;;;2.70;99.90;;;;;;5034579;28;20232;-70
2022/12/20 10:47:00;;;;;;;0.17;0.17;;;2.60;99.90;;;;;;5051376;28;20165;-70
2022/12/20 10:49:30;;;;;;;0.22;0.22;;;2.60;99.90;;;;;;5051437;28;20671;-70
2022/12/20 10:52:06;;;;;;;0.20;0.20;;;2.50;99.90;;;;;;5051456;28;20640;-70
2022/12/20 10:54:42;;;;;;;0.20;0.20;;;2.60;99.90;;;;;;5051630;28;20164;-70
2022/12/20 10:57:21;;;;;;;0.20;0.20;;;2.70;99.90;;;;;;5062887;28;20653;-71
2022/12/20 10:59:51;;;;;;;0.20;0.20;;;2.70;99.90;;;;;;5113794;28;20202;-69
2022/12/20 11:02:33;;;;;;;0.20;0.20;;;2.70;99.90;;;;;;5114043;28;20517;-70
2022/12/20 11:05:11;;;;;;;0.30;0.30;;;2.70;99.90;;;;;;5114040;28;20164;-69
2022/12/20 11:07:51;;;;;;;0.20;0.20;;;2.70;99.90;;;;;;5113456;28;20214;-70
2022/12/20 11:10:22;;;;;;;0.20;0.20;;;2.70;99.90;;;;;;5095505;28;20628;-69
2022/12/20 11:12:59;;;;;;;0.20;0.20;;;2.70;99.90;;;;;;5095634;28;20191;-70
2022/12/20 11:15:31;;;;;;;0.20;0.20;;;2.70;99.90;;;;;;5108077;28;20175;-70
2022/12/20 11:18:09;;;;;;;0.20;0.20;;;2.70;99.90;;;;;;5075406;28;20229;-71
2022/12/20 11:21:19;;;;;;;0.20;0.20;;;2.80;99.90;;;;;;5093027;28;20183;-70
2022/12/20 11:23:55;;;;;;;0.20;0.20;;;2.80;99.90;;;;;;5067021;28;20184;-70
2022/12/20 11:26:55;;;;;;;0.20;0.20;;;2.80;99.90;;;;;;5095399;28;20167;-71
2022/12/20 11:29:45;;;;;;;0.20;0.20;;;2.80;99.90;;;;;;5095119;28;20207;-71
2022/12/20 11:32:43;;;;;;;0.20;0.20;;;2.80;99.90;;;;;;5113476;28;20159;-70
2022/12/20 11:35:16;;;;;;;0.20;0.20;;;3.00;99.90;;;;;;5095931;28;20184;-70
2022/12/20 11:37:59;;;;;;;0.20;0.20;;;3.10;99.90;;;;;;5113130;28;20508;-70
2022/12/20 11:40:32;;;;;;;0.22;0.22;;;3.10;99.90;;;;;;5078767;28;20536;-71
2022/12/20 11:43:35;;;;;;;0.20;0.20;;;3.10;99.90;;;;;;5096518;28;20682;-71
2022/12/20 11:46:21;;;;;;;0.20;0.20;;;3.00;99.90;;;;;;5075373;28;20557;-71
2022/12/20 11:49:14;;;;;;;0.30;0.30;;;3.00;99.90;;;;;;5096657;28;20193;-71
2022/12/20 11:51:49;;;;;;;0.30;0.30;;;3.00;99.90;;;;;;5096583;28;20522;-71
2022/12/20 11:54:31;;;;;;;0.30;0.30;;;3.00;99.90;;;;;;5089684;28;20636;-72
2022/12/20 11:57:12;;;;;;;0.20;0.20;;;2.90;99.90;;;;;;5116942;28;20246;-70
2022/12/20 11:59:46;;;;;;;0.20;0.20;;;2.90;99.90;;;;;;5117051;28;20160;-70
2022/12/20 12:02:17;;;;;;;0.20;0.20;;;3.00;99.90;;;;;;5117011;28;20186;-70
2022/12/20 12:05:05;;;;;;;0.30;0.30;;;3.00;99.90;;;;;;5098190;28;20186;-71
2022/12/20 12:07:37;;;;;;;0.30;0.30;;;2.90;99.90;;;;;;5098435;28;20195;-70
2022/12/20 12:10:25;;;;;;;0.20;0.20;;;2.80;99.90;;;;;;5117023;28;20159;-71
2022/12/20 12:12:59;;;;;;;0.20;0.20;;;2.80;99.90;;;;;;5116474;28;20630;-71
2022/12/20 12:15:37;;;;;;;0.20;0.20;;;2.80;99.90;;;;;;5116773;28;20519;-71
2022/12/20 12:18:17;;;;;;;0.20;0.20;;;2.80;99.90;;;;;;5116485;28;20257;-71
2022/12/20 12:20:51;;;;;;;0.85;0.60;;;2.80;99.90;;;;;;5116686;28;20652;-72
2022/12/20 12:23:33;;;;;;;0.30;0.30;;;2.90;99.90;;;;;;5098088;28;20658;-72
2022/12/20 12:26:04;;;;;;;0.20;0.20;;;2.90;99.90;;;;;;5098587;28;20168;-71
2022/12/20 12:28:30;;;;;;;0.20;0.20;;;2.80;99.90;;;;;;5116263;28;20191;-72
2022/12/20 12:31:05;;;;;;;0.20;0.20;;;2.80;99.90;;;;;;5115612;28;20168;-71
2022/12/20 12:33:38;;;;;;;0.20;0.20;;;2.70;99.90;;;;;;5116471;28;20159;-71
2022/12/20 12:36:22;;;;;;;0.20;0.20;;;2.70;99.90;;;;;;5116094;28;20523;-71
2022/12/20 12:39:00;;;;;;;0.30;0.30;;;2.60;99.90;;;;;;5115919;28;20685;-72
2022/12/20 12:41:47;;;;;;;1.10;1.00;;;2.60;99.90;;;;;;5116052;28;20161;-70
2022/12/20 12:44:31;;;;;;;0.20;0.20;;;2.70;99.90;;;;;;5115655;28;20242;-71
2022/12/20 12:47:14;;;;;;;0.20;0.20;;;2.80;99.90;;;;;;5116095;28;20233;-70
2022/12/20 12:49:42;;;;;;;0.20;0.20;;;2.80;99.90;;;;;;5116118;28;20174;-71
2022/12/20 12:52:41;;;;;;;0.30;0.30;;;2.70;99.90;;;;;;5116212;28;20156;-70
2022/12/20 12:55:36;;;;;;;0.20;0.20;;;2.70;99.90;;;;;;5115905;28;20235;-70
2022/12/20 12:58:22;;;;;;;0.30;0.30;;;2.70;99.90;;;;;;5116355;28;20519;-71
2022/12/20 13:00:54;;;;;;;0.30;0.30;;;2.70;99.90;;;;;;5115601;28;20684;-72
2022/12/20 13:03:42;;;;;;;0.30;0.30;;;2.70;99.90;;;;;;5115822;28;20156;-71
2022/12/20 13:06:29;;;;;;;0.30;0.30;;;2.70;99.90;;;;;;5106144;28;20700;-71
2022/12/20 13:08:57;;;;;;;0.28;0.28;;;2.60;99.90;;;;;;5097171;28;20600;-71
2022/12/20 13:11:35;;;;;;;0.20;0.20;;;2.60;99.90;;;;;;5115583;28;20156;-70
2022/12/20 13:14:17;;;;;;;0.20;0.20;;;2.60;99.90;;;;;;5097750;28;20175;-71
2022/12/20 13:16:44;;;;;;;0.20;0.20;;;2.70;99.90;;;;;;5096958;28;20634;-71
2022/12/20 13:19:15;;;;;;;0.20;0.20;;;2.60;99.90;;;;;;5115420;28;20650;-70
2022/12/20 13:21:45;;;;;;;0.28;0.28;;;2.70;99.90;;;;;;5114947;28;20178;-71